createdAt,value
2018-09-14T00:01:44.747Z,100246.33
2018-09-14T00:04:12.460Z,100245.14
2018-09-14T00:06:40.163Z,100243.86
2018-09-14T00:09:10.050Z,100244.16
2018-09-14T00:11:37.819Z,100242.84
2018-09-14T00:14:05.579Z,100234.66
2018-09-14T00:16:33.233Z,100238.09
2018-09-14T00:19:00.948Z,100242.05
2018-09-14T00:21:28.629Z,100241.04
2018-09-14T00:23:56.294Z,100242.27
2018-09-14T00:26:23.911Z,100239.44
2018-09-14T00:28:51.569Z,100243.28
2018-09-14T00:31:19.218Z,100236.49
2018-09-14T00:33:46.898Z,100231.73
2018-09-14T00:36:14.553Z,100232.34
2018-09-14T00:38:42.190Z,100228.88
2018-09-14T00:41:09.881Z,100234.64
2018-09-14T00:43:37.554Z,100232.70
2018-09-14T00:46:05.245Z,100232.00
2018-09-14T00:48:32.864Z,100233.64
2018-09-14T00:51:00.546Z,100238.90
2018-09-14T00:53:28.210Z,100237.05
2018-09-14T00:55:55.905Z,100237.50
2018-09-14T00:58:23.515Z,100237.77
2018-09-14T01:00:51.209Z,100233.86
2018-09-14T01:03:19.337Z,100230.67
2018-09-14T01:05:47.109Z,100226.66
2018-09-14T01:08:14.768Z,100230.53
2018-09-14T01:10:42.625Z,100230.30
2018-09-14T01:13:10.316Z,100229.67
2018-09-14T01:15:37.997Z,100226.70
2018-09-14T01:18:05.761Z,100229.47
2018-09-14T01:20:33.510Z,100230.75
2018-09-14T01:23:01.135Z,100220.20
2018-09-14T01:25:28.723Z,100220.00
2018-09-14T01:27:56.382Z,100219.83
2018-09-14T01:30:24.105Z,100213.11
2018-09-14T01:32:51.922Z,100213.74
2018-09-14T01:35:25.455Z,100209.42
2018-09-14T01:37:53.037Z,100211.44
2018-09-14T01:40:20.700Z,100209.63
2018-09-14T01:42:48.641Z,100205.80
2018-09-14T01:45:16.277Z,100206.00
2018-09-14T01:47:43.913Z,100211.55
2018-09-14T01:50:11.523Z,100212.03
2018-09-14T01:52:39.161Z,100206.10
2018-09-14T01:55:06.884Z,100207.11
2018-09-14T01:57:34.550Z,100208.89
2018-09-14T02:00:02.228Z,100211.53
2018-09-14T02:02:29.849Z,100221.69
2018-09-14T02:04:57.549Z,100215.12
2018-09-14T02:07:25.251Z,100217.09
2018-09-14T02:09:52.954Z,100213.62
2018-09-14T02:12:20.594Z,100214.41
2018-09-14T02:14:48.208Z,100205.90
2018-09-14T02:17:15.848Z,100207.55
2018-09-14T02:19:43.544Z,100202.91
2018-09-14T02:22:11.554Z,100203.23
2018-09-14T02:24:39.168Z,100205.14
2018-09-14T02:27:07.106Z,100198.53
2018-09-14T02:29:34.741Z,100203.77
2018-09-14T02:32:02.751Z,100205.67
2018-09-14T02:34:30.408Z,100209.87
2018-09-14T02:36:58.084Z,100208.95
2018-09-14T02:39:25.817Z,100207.77
2018-09-14T02:41:53.723Z,100209.11
2018-09-14T02:44:21.384Z,100208.11
2018-09-14T02:46:49.036Z,100201.12
2018-09-14T02:49:16.664Z,100196.98
2018-09-14T02:51:44.607Z,100200.34
2018-09-14T02:54:12.317Z,100201.12
2018-09-14T02:56:39.996Z,100200.29
2018-09-14T02:59:07.693Z,100202.09
2018-09-14T03:01:35.390Z,100208.92
2018-09-14T03:04:03.156Z,100209.02
2018-09-14T03:06:30.897Z,100210.13
2018-09-14T03:08:58.521Z,100203.37
2018-09-14T03:11:26.171Z,100208.77
2018-09-14T03:13:53.823Z,100208.15
2018-09-14T03:16:21.501Z,100204.61
2018-09-14T03:18:49.174Z,100207.52
2018-09-14T03:21:16.904Z,100212.33
2018-09-14T03:23:44.813Z,100214.09
2018-09-14T03:26:12.905Z,100219.39
2018-09-14T03:28:40.773Z,100219.39
2018-09-14T03:31:08.399Z,100222.22
2018-09-14T03:33:36.130Z,100220.95
2018-09-14T03:36:03.844Z,100228.98
2018-09-14T03:38:31.561Z,100217.05
2018-09-14T03:40:59.182Z,100214.92
2018-09-14T03:43:26.946Z,100219.28
2018-09-14T03:45:54.644Z,100228.31
2018-09-14T03:48:22.306Z,100222.30
2018-09-14T03:50:50.418Z,100218.70
2018-09-14T03:53:18.078Z,100220.80
2018-09-14T03:55:45.717Z,100220.78
2018-09-14T03:58:13.442Z,100219.87
2018-09-14T04:00:41.072Z,100220.10
2018-09-14T04:03:08.864Z,100222.26
2018-09-14T04:05:36.522Z,100218.30
2018-09-14T04:08:04.212Z,100217.05
2018-09-14T04:10:31.998Z,100214.82
2018-09-14T04:12:59.704Z,100215.23
2018-09-14T04:15:27.388Z,100213.93
2018-09-14T04:17:55.145Z,100217.56
2018-09-14T04:20:22.885Z,100220.41
2018-09-14T04:22:50.540Z,100220.94
2018-09-14T04:25:18.228Z,100222.61
2018-09-14T04:27:45.810Z,100229.81
2018-09-14T04:30:13.660Z,100233.06
2018-09-14T04:32:41.520Z,100233.02
2018-09-14T04:35:09.232Z,100230.04
2018-09-14T04:37:36.934Z,100230.23
2018-09-14T04:40:04.794Z,100228.30
2018-09-14T04:42:32.568Z,100237.30
2018-09-14T04:45:00.379Z,100231.16
2018-09-14T04:47:28.015Z,100225.30
2018-09-14T04:49:55.775Z,100228.43
2018-09-14T04:52:23.371Z,100226.63
2018-09-14T04:54:51.259Z,100231.20
2018-09-14T04:57:19.148Z,100232.53
2018-09-14T04:59:46.833Z,100238.13
2018-09-14T05:02:14.545Z,100236.61
2018-09-14T05:04:42.371Z,100230.54
2018-09-14T05:07:10.108Z,100239.23
2018-09-14T05:09:37.781Z,100240.98
2018-09-14T05:12:05.787Z,100240.69
2018-09-14T05:14:33.443Z,100242.93
2018-09-14T05:17:01.149Z,100242.71
2018-09-14T05:19:28.897Z,100246.67
2018-09-14T05:21:56.632Z,100248.45
2018-09-14T05:24:24.347Z,100249.11
2018-09-14T05:26:52.030Z,100251.30
2018-09-14T05:29:19.813Z,100257.09
2018-09-14T05:31:47.506Z,100258.14
2018-09-14T05:34:15.173Z,100256.91
2018-09-14T05:36:42.820Z,100259.09
2018-09-14T05:39:10.478Z,100259.47
2018-09-14T05:41:38.390Z,100264.19
2018-09-14T05:44:06.210Z,100261.49
2018-09-14T05:46:33.783Z,100261.58
2018-09-14T05:49:01.500Z,100266.40
2018-09-14T05:51:29.184Z,100271.58
2018-09-14T05:53:56.930Z,100275.45
2018-09-14T05:56:25.016Z,100270.00
2018-09-14T05:58:52.726Z,100270.89
2018-09-14T06:01:20.406Z,100277.50
2018-09-14T06:03:48.070Z,100278.95
2018-09-14T06:06:15.760Z,100287.71
2018-09-14T06:08:43.440Z,100290.03
2018-09-14T06:11:11.233Z,100292.05
2018-09-14T06:13:38.976Z,100293.84
2018-09-14T06:16:06.738Z,100293.78
2018-09-14T06:18:34.394Z,100294.63
2018-09-14T06:21:02.220Z,100293.77
2018-09-14T06:23:30.028Z,100292.44
2018-09-14T06:25:57.659Z,100301.52
2018-09-14T06:28:25.297Z,100293.61
2018-09-14T06:30:52.991Z,100299.63
2018-09-14T06:33:20.696Z,100300.58
2018-09-14T06:35:48.507Z,100302.95
2018-09-14T06:38:16.178Z,100296.47
2018-09-14T06:40:43.969Z,100307.98
2018-09-14T06:43:12.553Z,100309.05
2018-09-14T06:45:40.438Z,100306.08
2018-09-14T06:48:08.082Z,100312.91
2018-09-14T06:50:35.749Z,100315.61
2018-09-14T06:53:03.536Z,100309.97
2018-09-14T06:55:31.198Z,100308.42
2018-09-14T06:57:58.915Z,100312.22
2018-09-14T07:00:26.965Z,100311.51
2018-09-14T07:02:54.545Z,100323.77
2018-09-14T07:05:22.841Z,100322.94
2018-09-14T07:07:50.672Z,100320.33
2018-09-14T07:10:18.397Z,100317.25
2018-09-14T07:12:46.035Z,100330.34
2018-09-14T07:15:13.702Z,100331.58
2018-09-14T07:17:41.428Z,100333.81
2018-09-14T07:20:09.287Z,100332.73
2018-09-14T07:22:36.990Z,100334.00
2018-09-14T07:25:04.787Z,100337.64
2018-09-14T07:27:33.089Z,100338.06
2018-09-14T07:30:00.761Z,100338.27
2018-09-14T07:32:28.458Z,100339.84
2018-09-14T07:34:56.363Z,100334.94
2018-09-14T07:37:24.002Z,100341.11
2018-09-14T07:39:51.690Z,100346.03
2018-09-14T07:42:19.476Z,100349.27
2018-09-14T07:44:47.180Z,100350.00
2018-09-14T07:47:14.854Z,100352.26
2018-09-14T07:49:42.702Z,100355.37
2018-09-14T07:52:10.312Z,100357.05
2018-09-14T07:54:38.044Z,100353.00
2018-09-14T07:57:05.767Z,100357.56
2018-09-14T07:59:33.509Z,100359.80
2018-09-14T08:02:01.243Z,100362.91
2018-09-14T08:04:28.901Z,100364.84
2018-09-14T08:06:56.585Z,100369.44
2018-09-14T08:09:24.364Z,100367.62
2018-09-14T08:11:52.050Z,100371.72
2018-09-14T08:14:19.837Z,100373.27
2018-09-14T08:16:47.520Z,100372.46
2018-09-14T08:19:15.213Z,100380.53
2018-09-14T08:21:43.062Z,100379.94
2018-09-14T08:24:10.629Z,100379.09
2018-09-14T08:26:38.309Z,100378.12
2018-09-14T08:29:06.119Z,100376.53
2018-09-14T08:31:33.790Z,100381.16
2018-09-14T08:34:01.535Z,100384.55
2018-09-14T08:36:29.209Z,100389.33
2018-09-14T08:38:56.893Z,100391.60
2018-09-14T08:41:24.650Z,100389.84
2018-09-14T08:43:52.475Z,100388.19
2018-09-14T08:46:20.191Z,100385.25
2018-09-14T08:48:47.873Z,100392.17
2018-09-14T08:51:15.543Z,100390.70
2018-09-14T08:53:43.343Z,100400.00
2018-09-14T08:56:11.098Z,100403.22
2018-09-14T08:58:38.780Z,100400.48
2018-09-14T09:01:06.645Z,100398.84
2018-09-14T09:03:34.329Z,100404.87
2018-09-14T09:06:02.169Z,100403.47
2018-09-14T09:08:29.998Z,100411.61
2018-09-14T09:10:57.710Z,100403.71
2018-09-14T09:13:25.472Z,100407.65
2018-09-14T09:15:53.088Z,100411.98
2018-09-14T09:18:20.779Z,100412.20
2018-09-14T09:20:48.381Z,100412.62
2018-09-14T09:23:16.077Z,100417.17
2018-09-14T09:25:43.725Z,100413.99
2018-09-14T09:28:11.375Z,100412.96
2018-09-14T09:30:38.998Z,100415.81
2018-09-14T09:33:06.675Z,100406.78
2018-09-14T09:35:34.856Z,100404.83
2018-09-14T09:38:02.571Z,100398.10
2018-09-14T09:40:30.186Z,100399.47
2018-09-14T09:42:57.949Z,100396.74
2018-09-14T09:45:25.613Z,100403.51
2018-09-14T09:47:53.297Z,100401.22
2018-09-14T09:50:21.043Z,100400.02
2018-09-14T09:52:48.666Z,100400.11
2018-09-14T09:55:16.417Z,100393.74
2018-09-14T09:57:44.192Z,100396.23
2018-09-14T10:00:17.581Z,100399.92
2018-09-14T10:03:01.671Z,100399.66
2018-09-14T10:05:34.996Z,100401.30
2018-09-14T10:08:02.728Z,100402.84
2018-09-14T10:10:30.531Z,100403.16
2018-09-14T10:12:58.262Z,100394.73
2018-09-14T10:15:25.953Z,100403.89
2018-09-14T10:17:53.649Z,100399.37
2018-09-14T10:20:21.370Z,100398.23
2018-09-14T10:22:49.031Z,100396.22
2018-09-14T10:25:18.484Z,100403.69
2018-09-14T10:27:46.220Z,100402.38
2018-09-14T10:30:14.008Z,100400.05
2018-09-14T10:32:41.681Z,100388.55
2018-09-14T10:35:09.565Z,100395.39
2018-09-14T10:37:37.300Z,100391.72
2018-09-14T10:40:05.087Z,100388.74
2018-09-14T10:42:32.873Z,100394.06
2018-09-14T10:45:00.619Z,100385.59
2018-09-14T10:47:28.393Z,100388.27
2018-09-14T10:49:56.687Z,100382.72
2018-09-14T10:52:25.438Z,100382.94
2018-09-14T10:54:53.316Z,100385.86
2018-09-14T10:57:20.981Z,100382.05
2018-09-14T10:59:48.951Z,100382.25
2018-09-14T11:02:16.694Z,100386.48
2018-09-14T11:04:45.776Z,100379.95
2018-09-14T11:07:13.551Z,100384.16
2018-09-14T11:09:41.348Z,100384.42
2018-09-14T11:12:09.337Z,100378.21
2018-09-14T11:14:37.235Z,100384.09
2018-09-14T11:17:04.961Z,100383.41
2018-09-14T11:19:33.655Z,100379.53
2018-09-14T11:22:01.368Z,100379.47
2018-09-14T11:24:29.184Z,100379.97
2018-09-14T11:26:56.880Z,100375.91
2018-09-14T11:29:25.997Z,100377.97
2018-09-14T11:31:54.003Z,100374.28
2018-09-14T11:34:21.717Z,100375.56
2018-09-14T11:36:49.365Z,100368.84
2018-09-14T11:39:17.012Z,100366.89
2018-09-14T11:41:44.637Z,100367.28
2018-09-14T11:44:12.299Z,100363.10
2018-09-14T11:46:39.985Z,100364.84
2018-09-14T11:49:07.611Z,100363.94
2018-09-14T11:51:36.315Z,100368.63
2018-09-14T11:54:05.734Z,100367.23
2018-09-14T11:56:33.742Z,100367.55
2018-09-14T11:59:01.544Z,100370.72
2018-09-14T12:01:29.371Z,100363.38
2018-09-14T12:03:57.021Z,100366.75
2018-09-14T12:06:24.754Z,100361.38
2018-09-14T12:08:52.516Z,100358.11
2018-09-14T12:11:20.215Z,100357.34
2018-09-14T12:13:47.867Z,100350.70
2018-09-14T12:16:15.765Z,100356.07
2018-09-14T12:18:43.501Z,100358.87
2018-09-14T12:21:11.269Z,100361.48
2018-09-14T12:23:38.919Z,100360.02
2018-09-14T12:26:06.781Z,100355.98
2018-09-14T12:28:34.827Z,100354.39
2018-09-14T12:31:02.553Z,100356.95
2018-09-14T12:33:30.739Z,100360.81
2018-09-14T12:35:58.499Z,100358.72
2018-09-14T12:38:26.223Z,100354.17
2018-09-14T12:40:53.957Z,100359.81
2018-09-14T12:43:21.624Z,100358.22
2018-09-14T12:45:49.429Z,100361.67
2018-09-14T12:48:17.255Z,100361.77
2018-09-14T12:50:45.125Z,100354.63
2018-09-14T12:53:12.867Z,100356.71
2018-09-14T12:55:40.614Z,100353.88
2018-09-14T12:58:08.448Z,100348.86
2018-09-14T13:00:36.416Z,100347.67
2018-09-14T13:03:05.142Z,100347.42
2018-09-14T13:05:32.804Z,100347.80
2018-09-14T13:08:00.474Z,100342.33
2018-09-14T13:10:28.205Z,100341.47
2018-09-14T13:12:55.962Z,100342.31
2018-09-14T13:15:24.230Z,100338.16
2018-09-14T13:17:51.966Z,100346.42
2018-09-14T13:20:19.646Z,100347.44
2018-09-14T13:22:47.466Z,100340.52
2018-09-14T13:25:15.229Z,100338.48
2018-09-14T13:27:42.998Z,100336.15
2018-09-14T13:30:10.774Z,100336.12
2018-09-14T13:32:40.424Z,100338.05
2018-09-14T13:35:08.193Z,100333.73
2018-09-14T13:37:35.904Z,100333.73
2018-09-14T13:40:04.270Z,100332.55
2018-09-14T13:42:32.085Z,100335.22
2018-09-14T13:44:59.830Z,100327.16
2018-09-14T13:47:27.485Z,100327.33
2018-09-14T13:49:55.257Z,100331.16
2018-09-14T13:52:23.079Z,100330.85
2018-09-14T13:54:50.844Z,100335.03
2018-09-14T13:57:18.642Z,100331.79
2018-09-14T13:59:46.383Z,100332.80
2018-09-14T14:02:14.068Z,100330.39
2018-09-14T14:04:41.777Z,100326.75
2018-09-14T14:07:09.521Z,100326.41
2018-09-14T14:09:37.228Z,100324.45
2018-09-14T14:12:05.024Z,100320.76
2018-09-14T14:14:32.731Z,100315.16
2018-09-14T14:17:00.540Z,100314.81
2018-09-14T14:19:28.193Z,100309.64
2018-09-14T14:21:58.551Z,100314.28
2018-09-14T14:24:26.629Z,100307.69
2018-09-14T14:26:54.426Z,100300.41
2018-09-14T14:29:22.114Z,100302.69
2018-09-14T14:31:49.852Z,100303.77
2018-09-14T14:34:17.595Z,100306.50
2018-09-14T14:36:45.221Z,100303.49
2018-09-14T14:39:12.955Z,100311.25
2018-09-14T14:41:40.825Z,100302.98
2018-09-14T14:44:08.801Z,100310.50
2018-09-14T14:46:36.438Z,100303.34
2018-09-14T14:49:04.145Z,100306.03
2018-09-14T14:51:31.887Z,100306.53
2018-09-14T14:53:59.604Z,100299.20
2018-09-14T14:56:27.287Z,100297.35
2018-09-14T14:58:55.080Z,100289.05
2018-09-14T15:01:22.830Z,100278.11
2018-09-14T15:03:50.510Z,100281.13
2018-09-14T15:06:19.170Z,100275.97
2018-09-14T15:08:46.810Z,100283.27
2018-09-14T15:11:14.399Z,100273.77
2018-09-14T15:13:42.128Z,100273.76
2018-09-14T15:16:09.950Z,100275.85
2018-09-14T15:18:37.680Z,100279.06
2018-09-14T15:21:05.403Z,100270.07
2018-09-14T15:23:33.164Z,100269.75
2018-09-14T15:26:00.954Z,100273.70
2018-09-14T15:28:28.945Z,100270.11
2018-09-14T15:30:56.697Z,100267.39
2018-09-14T15:33:24.618Z,100266.59
2018-09-14T15:35:52.422Z,100259.95
2018-09-14T15:38:20.366Z,100251.08
2018-09-14T15:40:48.063Z,100250.97
2018-09-14T15:43:15.838Z,100253.05
2018-09-14T15:45:43.672Z,100260.80
2018-09-14T15:48:11.329Z,100252.65
2018-09-14T15:50:39.420Z,100258.48
2018-09-14T15:53:07.185Z,100256.21
2018-09-14T15:55:35.022Z,100255.97
2018-09-14T15:58:02.900Z,100252.52
2018-09-14T16:00:30.727Z,100248.63
2018-09-14T16:02:58.448Z,100252.88
2018-09-14T16:05:26.307Z,100252.89
2018-09-14T16:07:54.030Z,100253.90
2018-09-14T16:10:21.747Z,100247.27
2018-09-14T16:12:49.465Z,100245.86
2018-09-14T16:15:17.287Z,100245.78
2018-09-14T16:17:45.284Z,100247.21
2018-09-14T16:20:12.983Z,100250.16
2018-09-14T16:22:40.689Z,100247.12
2018-09-14T16:25:08.437Z,100249.14
2018-09-14T16:27:36.514Z,100244.84
2018-09-14T16:30:05.224Z,100237.95
2018-09-14T16:32:33.032Z,100237.73
2018-09-14T16:35:00.657Z,100242.80
2018-09-14T16:37:28.387Z,100244.38
2018-09-14T16:39:56.080Z,100244.42
2018-09-14T16:42:23.765Z,100237.58
2018-09-14T16:44:51.479Z,100230.16
2018-09-14T16:47:19.240Z,100220.63
2018-09-14T16:49:46.869Z,100222.63
2018-09-14T16:52:14.562Z,100225.12
2018-09-14T16:54:42.268Z,100232.52
2018-09-14T16:57:09.962Z,100230.58
2018-09-14T16:59:37.604Z,100233.28
2018-09-14T17:02:05.415Z,100227.67
2018-09-14T17:04:33.021Z,100225.02
2018-09-14T17:07:00.700Z,100218.36
2018-09-14T17:09:28.501Z,100226.53
2018-09-14T17:11:56.347Z,100228.20
2018-09-14T17:14:24.110Z,100226.03
2018-09-14T17:16:51.848Z,100227.00
2018-09-14T17:19:19.596Z,100231.16
2018-09-14T17:21:47.316Z,100230.66
2018-09-14T17:24:15.037Z,100228.98
2018-09-14T17:26:42.786Z,100226.33
2018-09-14T17:29:10.537Z,100223.47
2018-09-14T17:31:38.294Z,100223.32
2018-09-14T17:34:05.978Z,100227.45
2018-09-14T17:36:33.639Z,100222.64
2018-09-14T17:39:01.359Z,100233.22
2018-09-14T17:41:29.124Z,100228.36
2018-09-14T17:43:56.784Z,100229.61
2018-09-14T17:46:24.422Z,100232.06
2018-09-14T17:48:52.106Z,100232.86
2018-09-14T17:51:19.833Z,100240.08
2018-09-14T17:53:47.436Z,100237.98
2018-09-14T17:56:15.111Z,100142.50
2018-09-14T17:58:42.791Z,100238.02
2018-09-14T18:01:10.456Z,100226.59
2018-09-14T18:03:38.123Z,100241.09
2018-09-14T18:06:05.975Z,100237.36
2018-09-14T18:08:33.813Z,100239.93
2018-09-14T18:11:01.669Z,100241.58
2018-09-14T18:13:29.374Z,100238.55
2018-09-14T18:15:57.128Z,100235.93
2018-09-14T18:18:24.780Z,100237.13
2018-09-14T18:20:52.632Z,100236.55
2018-09-14T18:23:20.290Z,100244.89
2018-09-14T18:25:48.042Z,100242.70
2018-09-14T18:28:15.713Z,100245.97
2018-09-14T18:30:43.506Z,100244.06
2018-09-14T18:33:11.237Z,100250.57
2018-09-14T18:35:38.959Z,100249.25
2018-09-14T18:38:06.779Z,100252.52
2018-09-14T18:40:34.495Z,100250.71
2018-09-14T18:43:02.186Z,100250.28
2018-09-14T18:45:29.858Z,100252.12
2018-09-14T18:47:57.468Z,100254.03
2018-09-14T18:50:25.280Z,100261.92
2018-09-14T18:52:52.965Z,100265.42
2018-09-14T18:55:20.712Z,100263.13
2018-09-14T18:57:48.526Z,100265.28
2018-09-14T19:00:16.321Z,100270.19
2018-09-14T19:02:44.249Z,100268.55
2018-09-14T19:05:12.124Z,100272.13
2018-09-14T19:07:40.124Z,100278.73
2018-09-14T19:10:07.885Z,100279.00
2018-09-14T19:12:35.778Z,100273.09
2018-09-14T19:15:03.740Z,100269.91
2018-09-14T19:17:31.433Z,100266.03
2018-09-14T19:19:59.462Z,100264.14
2018-09-14T19:22:28.277Z,100270.00
2018-09-14T19:24:56.324Z,100270.67
2018-09-14T19:27:24.133Z,100272.44
2018-09-14T19:29:51.882Z,100270.32
2018-09-14T19:32:19.526Z,100274.06
2018-09-14T19:34:47.235Z,100269.16
2018-09-14T19:37:14.987Z,100276.16
2018-09-14T19:39:44.835Z,100274.66
2018-09-14T19:42:12.523Z,100283.92
2018-09-14T19:44:40.258Z,100279.88
2018-09-14T19:47:07.998Z,100282.81
2018-09-14T19:49:35.718Z,100286.41
2018-09-14T19:52:03.467Z,100275.08
2018-09-14T19:54:31.233Z,100282.19
2018-09-14T19:56:58.907Z,100280.66
2018-09-14T19:59:26.633Z,100282.88
2018-09-14T20:01:54.461Z,100281.80
2018-09-14T20:04:22.233Z,100278.52
2018-09-14T20:06:55.290Z,100284.98
2018-09-14T20:09:22.977Z,100270.06
2018-09-14T20:11:51.169Z,100263.99
2018-09-14T20:14:18.935Z,100258.75
2018-09-14T20:16:46.737Z,100255.51
2018-09-14T20:19:14.433Z,100256.25
2018-09-14T20:21:42.154Z,100255.67
2018-09-14T20:24:09.863Z,100257.14
2018-09-14T20:26:37.853Z,100261.93
2018-09-14T20:29:05.599Z,100253.56
2018-09-14T20:31:33.406Z,100253.29
2018-09-14T20:34:01.069Z,100251.27
2018-09-14T20:36:29.553Z,100248.34
2018-09-14T20:38:57.339Z,100243.27
2018-09-14T20:41:25.038Z,100244.67
2018-09-14T20:43:53.005Z,100243.33
2018-09-14T20:46:20.769Z,100238.20
2018-09-14T20:48:48.597Z,100236.23
2018-09-14T20:51:16.353Z,100244.23
2018-09-14T20:53:43.993Z,100245.62
2018-09-14T20:56:11.645Z,100245.20
2018-09-14T20:58:39.349Z,100245.02
2018-09-14T21:01:06.977Z,100246.59
2018-09-14T21:03:34.664Z,100247.14
2018-09-14T21:06:02.437Z,100250.04
2018-09-14T21:08:30.118Z,100245.05
2018-09-14T21:10:57.777Z,100253.55
2018-09-14T21:13:25.590Z,100245.82
2018-09-14T21:15:53.222Z,100251.67
2018-09-14T21:18:20.822Z,100251.41
2018-09-14T21:20:48.498Z,100252.75
2018-09-14T21:23:16.154Z,100251.81
2018-09-14T21:25:43.818Z,100236.16
2018-09-14T21:28:11.426Z,100233.89
2018-09-14T21:30:39.582Z,100234.80
2018-09-14T21:33:07.211Z,100240.20
2018-09-14T21:35:34.890Z,100245.02
2018-09-14T21:38:02.508Z,100246.87
2018-09-14T21:40:30.240Z,100237.90
2018-09-14T21:43:04.580Z,100243.05
2018-09-14T21:45:32.160Z,100240.41
2018-09-14T21:47:59.772Z,100250.00
2018-09-14T21:50:27.434Z,100240.84
2018-09-14T21:52:55.057Z,100239.66
2018-09-14T21:55:22.682Z,100230.97
2018-09-14T21:57:50.338Z,100235.21
2018-09-14T22:00:23.746Z,100241.89
2018-09-14T22:02:51.373Z,100237.63
2018-09-14T22:05:19.067Z,100241.19
2018-09-14T22:07:46.717Z,100234.66
2018-09-14T22:10:14.371Z,100242.04
2018-09-14T22:12:41.995Z,100228.96
2018-09-14T22:15:09.655Z,100236.41
2018-09-14T22:17:38.074Z,100231.47
2018-09-14T22:20:06.268Z,100229.52
2018-09-14T22:22:33.949Z,100229.52
2018-09-14T22:25:01.554Z,100229.64
2018-09-14T22:27:29.172Z,100229.91
2018-09-14T22:29:57.865Z,100230.67
2018-09-14T22:32:25.575Z,100230.12
2018-09-14T22:34:53.274Z,100231.94
2018-09-14T22:37:20.919Z,100235.95
2018-09-14T22:39:48.613Z,100232.20
2018-09-14T22:42:16.279Z,100228.65
2018-09-14T22:44:44.028Z,100228.08
2018-09-14T22:47:11.712Z,100228.08
2018-09-14T22:49:39.937Z,100223.63
2018-09-14T22:52:07.799Z,100228.78
2018-09-14T22:54:35.421Z,100232.34
2018-09-14T22:57:03.064Z,100220.85
2018-09-14T22:59:30.624Z,100219.25
2018-09-14T23:01:58.198Z,100218.47
2018-09-14T23:04:25.836Z,100219.30
2018-09-14T23:06:53.458Z,100216.73
2018-09-14T23:09:21.549Z,100221.75
2018-09-14T23:11:49.085Z,100215.08
2018-09-14T23:14:16.756Z,100215.16
2018-09-14T23:16:44.385Z,100216.63
2018-09-14T23:19:11.993Z,100210.50
2018-09-14T23:21:39.789Z,100213.82
2018-09-14T23:24:07.527Z,100207.55
2018-09-14T23:26:35.166Z,100211.69
2018-09-14T23:29:02.875Z,100216.05
2018-09-14T23:31:30.519Z,100211.11
2018-09-14T23:33:58.275Z,100209.78
2018-09-14T23:36:26.670Z,100208.25
2018-09-14T23:38:54.340Z,100205.05
2018-09-14T23:41:21.995Z,100204.33
2018-09-14T23:43:50.274Z,100205.53
2018-09-14T23:46:17.936Z,100202.28
2018-09-14T23:48:46.590Z,100205.50
2018-09-14T23:51:14.216Z,100205.45
2018-09-14T23:53:41.866Z,100214.16
2018-09-14T23:56:09.568Z,100216.31
2018-09-14T23:58:37.414Z,100217.45
